Time;durP1;ratioP1;P1;durP2;ratioP2;P2;SDS_P1;SDS_P2;PMS_P1;PMS_P2;Temp;Humidity;BMP_temperature;BMP_pressure;BME280_temperature;BME280_humidity;BME280_pressure;Samples;Min_cycle;Max_cycle;Signal;HPM_P1;HPM_P2
2022/08/25 00:01:37;;;;;;;2.50;2.40;;;17.80;99.90;;;;;;475417;249;28854;-70
2022/08/25 00:03:39;;;;;;;2.50;2.30;;;17.80;99.90;;;;;;475386;250;29235;-68
2022/08/25 00:05:40;;;;;;;2.20;2.10;;;17.80;99.90;;;;;;475410;250;29284;-68
2022/08/25 00:07:41;;;;;;;2.40;2.20;;;17.90;99.90;;;;;;479904;236;29316;-72
2022/08/25 00:09:42;;;;;;;2.30;2.20;;;17.90;99.90;;;;;;481470;246;29215;-68
2022/08/25 00:11:44;;;;;;;2.70;2.50;;;17.90;99.90;;;;;;481531;246;29262;-70
2022/08/25 00:13:45;;;;;;;2.17;2.07;;;18.00;99.90;;;;;;481511;246;28814;-68
2022/08/25 00:15:46;;;;;;;2.17;2.07;;;17.90;99.90;;;;;;481503;246;28780;-68
2022/08/25 00:17:47;;;;;;;2.10;2.00;;;17.90;99.90;;;;;;494490;236;28791;-68
2022/08/25 00:19:49;;;;;;;2.40;2.20;;;17.90;99.90;;;;;;504124;236;28685;-68
2022/08/25 00:21:50;;;;;;;2.20;2.10;;;17.80;99.90;;;;;;504131;236;29234;-70
2022/08/25 00:23:51;;;;;;;3.03;2.40;;;17.80;99.90;;;;;;504027;236;28686;-68
2022/08/25 00:25:54;;;;;;;2.37;2.27;;;17.80;99.90;;;;;;504126;236;28703;-69
2022/08/25 00:27:54;;;;;;;2.30;2.20;;;17.90;99.90;;;;;;495024;236;28812;-71
2022/08/25 00:29:55;;;;;;;3.83;2.00;;;17.90;99.90;;;;;;492590;241;29214;-67
2022/08/25 00:31:56;;;;;;;3.13;1.90;;;17.80;99.90;;;;;;492619;241;29612;-68
2022/08/25 00:33:57;;;;;;;2.40;2.30;;;17.80;99.90;;;;;;492568;241;29165;-67
2022/08/25 00:35:59;;;;;;;2.10;2.00;;;17.80;99.90;;;;;;492595;241;29185;-68
2022/08/25 00:38:00;;;;;;;2.40;2.20;;;17.80;99.90;;;;;;479737;236;28888;-72
2022/08/25 00:40:01;;;;;;;2.93;2.00;;;17.80;99.90;;;;;;476372;250;28852;-68
2022/08/25 00:42:03;;;;;;;2.27;2.07;;;17.80;99.90;;;;;;476326;250;28774;-69
2022/08/25 00:44:04;;;;;;;2.27;2.17;;;17.80;99.90;;;;;;476294;250;28722;-68
2022/08/25 00:46:05;;;;;;;2.10;1.90;;;17.80;99.90;;;;;;476300;250;28765;-68
2022/08/25 00:48:06;;;;;;;2.47;2.10;;;17.80;99.90;;;;;;482705;241;28952;-71
2022/08/25 00:50:07;;;;;;;2.10;2.00;;;17.80;99.90;;;;;;484120;245;29395;-68
2022/08/25 00:52:09;;;;;;;2.30;2.20;;;17.80;99.90;;;;;;484121;245;29319;-70
2022/08/25 00:54:10;;;;;;;2.20;2.10;;;17.80;99.90;;;;;;484093;245;28828;-67
2022/08/25 00:56:11;;;;;;;2.13;2.03;;;17.80;99.90;;;;;;484019;245;28943;-68
2022/08/25 00:58:13;;;;;;;2.43;2.23;;;17.80;99.90;;;;;;484237;242;28878;-72
2022/08/25 01:00:14;;;;;;;2.33;2.13;;;17.80;99.90;;;;;;484908;245;28719;-69
2022/08/25 01:02:15;;;;;;;2.00;1.90;;;17.90;99.90;;;;;;484900;245;28789;-69
2022/08/25 01:04:16;;;;;;;2.20;2.00;;;17.80;99.90;;;;;;484861;245;28783;-67
2022/08/25 01:06:17;;;;;;;1.90;1.80;;;17.80;99.90;;;;;;484765;245;28752;-68
2022/08/25 01:08:19;;;;;;;2.13;1.90;;;17.80;99.90;;;;;;485866;237;28769;-71
2022/08/25 01:10:20;;;;;;;2.07;1.97;;;17.80;99.90;;;;;;486203;244;29199;-68
2022/08/25 01:12:21;;;;;;;2.00;1.90;;;17.70;99.90;;;;;;486242;244;29214;-67
2022/08/25 01:14:22;;;;;;;2.30;2.20;;;17.60;99.90;;;;;;486193;244;29233;-68
2022/08/25 01:16:24;;;;;;;2.40;2.30;;;17.50;99.90;;;;;;486041;244;29586;-69
2022/08/25 01:18:25;;;;;;;2.50;2.20;;;17.40;99.90;;;;;;468625;241;28816;-71
2022/08/25 01:20:27;;;;;;;2.10;2.00;;;17.40;99.90;;;;;;466881;254;28784;-68
2022/08/25 01:22:28;;;;;;;2.60;2.40;;;17.40;99.90;;;;;;466912;255;28776;-69
2022/08/25 01:24:30;;;;;;;2.30;2.10;;;17.30;99.90;;;;;;466857;254;28829;-68
2022/08/25 01:26:30;;;;;;;2.40;2.20;;;17.40;99.90;;;;;;466761;255;28781;-68
2022/08/25 01:28:31;;;;;;;2.50;2.30;;;17.30;99.90;;;;;;466921;254;28787;-70
2022/08/25 01:30:33;;;;;;;2.03;1.93;;;17.30;99.90;;;;;;466874;255;28768;-68
2022/08/25 01:32:34;;;;;;;2.20;2.10;;;17.30;99.90;;;;;;466911;254;28882;-68
2022/08/25 01:34:35;;;;;;;2.70;2.50;;;17.30;99.90;;;;;;466877;254;30287;-68
2022/08/25 01:36:36;;;;;;;1.90;1.80;;;17.30;99.90;;;;;;466841;255;29229;-68
2022/08/25 01:38:37;;;;;;;2.40;2.20;;;17.30;99.90;;;;;;466904;254;29358;-69
2022/08/25 01:40:39;;;;;;;2.27;2.17;;;17.30;99.90;;;;;;466872;254;29313;-68
2022/08/25 01:42:40;;;;;;;2.20;2.10;;;17.30;99.90;;;;;;466883;254;28779;-68
2022/08/25 01:44:42;;;;;;;2.13;2.03;;;17.20;99.90;;;;;;466892;254;28776;-67
2022/08/25 01:46:43;;;;;;;2.87;2.30;;;17.20;99.90;;;;;;466859;254;28758;-68
2022/08/25 01:48:44;;;;;;;3.60;2.40;;;17.10;99.90;;;;;;466924;254;28861;-70
2022/08/25 01:50:45;;;;;;;2.30;2.20;;;17.10;99.90;;;;;;466853;255;28858;-68
2022/08/25 01:52:46;;;;;;;2.37;2.17;;;17.10;99.90;;;;;;466912;254;28816;-67
2022/08/25 01:54:47;;;;;;;2.53;2.33;;;17.20;99.90;;;;;;466880;254;29151;-71
2022/08/25 01:56:49;;;;;;;2.73;2.53;;;17.10;99.90;;;;;;466863;255;28773;-68
2022/08/25 01:58:50;;;;;;;2.80;2.60;;;17.00;99.90;;;;;;466848;254;29293;-69
2022/08/25 02:00:53;;;;;;;2.60;2.40;;;16.90;99.90;;;;;;466863;254;29233;-68
2022/08/25 02:02:53;;;;;;;2.30;2.20;;;17.00;99.90;;;;;;466821;255;29306;-67
2022/08/25 02:04:54;;;;;;;2.40;2.30;;;16.80;99.90;;;;;;466878;255;29335;-70
2022/08/25 02:06:55;;;;;;;2.40;2.30;;;16.70;99.90;;;;;;472772;236;28848;-68
2022/08/25 02:08:57;;;;;;;2.83;2.40;;;16.80;99.90;;;;;;500609;237;29175;-69
2022/08/25 02:10:58;;;;;;;2.93;2.60;;;16.80;99.90;;;;;;500383;237;28778;-68
2022/08/25 02:12:59;;;;;;;2.40;2.30;;;16.80;99.90;;;;;;500602;237;28705;-68
2022/08/25 02:15:04;;;;;;;2.10;2.00;;;16.80;99.90;;;;;;500568;237;29062;-73
2022/08/25 02:17:02;;;;;;;2.10;2.00;;;16.90;99.90;;;;;;494846;237;29454;-67
2022/08/25 02:19:03;;;;;;;2.20;2.10;;;16.80;99.90;;;;;;472305;252;28956;-69
2022/08/25 02:21:04;;;;;;;2.17;2.07;;;16.80;99.90;;;;;;472357;252;28871;-68
2022/08/25 02:23:05;;;;;;;2.50;2.33;;;16.80;99.90;;;;;;472385;252;28867;-68
2022/08/25 02:25:06;;;;;;;2.60;2.40;;;16.80;99.90;;;;;;472335;252;29349;-72
2022/08/25 02:27:09;;;;;;;2.30;2.20;;;16.80;99.90;;;;;;473944;240;29549;-68
2022/08/25 02:29:09;;;;;;;2.37;2.27;;;16.80;99.90;;;;;;476400;249;29339;-68
2022/08/25 02:31:10;;;;;;;2.60;2.50;;;16.80;99.90;;;;;;476413;249;28746;-69
2022/08/25 02:33:11;;;;;;;2.53;2.43;;;16.70;99.90;;;;;;476316;249;28794;-68
2022/08/25 02:35:13;;;;;;;2.47;2.37;;;16.70;99.90;;;;;;476500;249;28866;-70
2022/08/25 02:37:14;;;;;;;2.70;2.50;;;16.60;99.90;;;;;;480473;238;28753;-67
2022/08/25 02:39:15;;;;;;;2.27;2.17;;;16.60;99.90;;;;;;491823;241;28772;-69
2022/08/25 02:41:17;;;;;;;2.63;2.43;;;16.70;99.90;;;;;;491784;242;28761;-68
2022/08/25 02:43:18;;;;;;;2.40;2.30;;;16.60;99.90;;;;;;491705;241;28798;-68
2022/08/25 02:45:19;;;;;;;2.70;2.30;;;16.70;99.90;;;;;;491800;236;28820;-72
2022/08/25 02:47:21;;;;;;;2.20;2.10;;;16.70;99.90;;;;;;485107;235;28862;-67
2022/08/25 02:49:21;;;;;;;2.97;2.77;;;16.60;99.90;;;;;;474131;248;29268;-68
2022/08/25 02:51:23;;;;;;;2.87;2.70;;;16.70;99.90;;;;;;474091;250;29264;-67
2022/08/25 02:53:24;;;;;;;2.30;2.20;;;16.60;99.90;;;;;;474129;251;29234;-68
2022/08/25 02:55:25;;;;;;;2.60;2.43;;;16.60;99.90;;;;;;474150;248;29406;-71
2022/08/25 02:57:26;;;;;;;2.37;2.20;;;16.70;99.90;;;;;;474084;248;28759;-68
2022/08/25 02:59:28;;;;;;;2.43;2.30;;;16.70;99.90;;;;;;474088;251;28833;-68
2022/08/25 03:01:29;;;;;;;2.20;2.10;;;16.70;99.90;;;;;;474090;250;28857;-67
2022/08/25 03:03:30;;;;;;;2.43;2.33;;;16.60;99.90;;;;;;459369;253;29391;-67
2022/08/25 03:05:31;;;;;;;2.60;2.30;;;16.60;99.90;;;;;;477404;249;29459;-71
2022/08/25 03:07:33;;;;;;;2.30;2.20;;;16.50;99.90;;;;;;474701;243;28860;-67
2022/08/25 03:09:34;;;;;;;2.20;2.10;;;16.40;99.90;;;;;;471524;251;28825;-68
2022/08/25 03:11:37;;;;;;;2.53;2.33;;;16.40;99.90;;;;;;471430;251;28855;-67
2022/08/25 03:13:36;;;;;;;2.80;2.60;;;16.30;99.90;;;;;;468796;253;28946;-68
2022/08/25 03:15:38;;;;;;;2.27;2.17;;;16.20;99.90;;;;;;473345;251;28942;-71
2022/08/25 03:17:39;;;;;;;2.50;2.40;;;16.10;99.90;;;;;;476807;232;28864;-68
2022/08/25 03:19:40;;;;;;;2.40;2.30;;;16.00;99.90;;;;;;480565;246;28844;-70
2022/08/25 03:21:41;;;;;;;2.73;2.53;;;16.00;99.90;;;;;;483072;245;28761;-68
2022/08/25 03:23:43;;;;;;;2.50;2.40;;;16.00;99.90;;;;;;487984;244;28774;-68
2022/08/25 03:28:04;;;;;;;2.90;2.70;;;16.10;99.90;;;;;;481348;243;28919;-67
2022/08/25 03:30:05;;;;;;;2.93;2.73;;;16.10;99.90;;;;;;480796;245;28804;-69
2022/08/25 03:32:06;;;;;;;2.50;2.40;;;16.10;99.90;;;;;;480739;245;28955;-70
2022/08/25 03:34:08;;;;;;;3.20;2.90;;;16.20;99.90;;;;;;480831;245;28879;-67
2022/08/25 03:36:10;;;;;;;3.13;2.93;;;16.20;99.90;;;;;;480763;245;28863;-68
2022/08/25 03:38:10;;;;;;;2.90;2.70;;;16.20;99.90;;;;;;490339;241;28852;-67
2022/08/25 03:40:11;;;;;;;2.73;2.53;;;16.20;99.90;;;;;;494946;240;29143;-67
2022/08/25 03:42:12;;;;;;;2.63;2.50;;;16.20;99.90;;;;;;494919;239;28761;-68
2022/08/25 03:44:14;;;;;;;2.80;2.60;;;16.10;99.90;;;;;;494942;239;29323;-68
2022/08/25 03:46:15;;;;;;;2.77;2.57;;;16.00;99.90;;;;;;494873;239;29187;-69
2022/08/25 03:48:16;;;;;;;2.80;2.60;;;15.90;99.90;;;;;;481692;236;29120;-68
2022/08/25 03:50:17;;;;;;;2.47;2.37;;;15.80;99.90;;;;;;489388;243;28824;-68
2022/08/25 03:52:19;;;;;;;3.03;2.73;;;15.90;99.90;;;;;;489402;242;28835;-70
2022/08/25 03:54:20;;;;;;;2.43;2.30;;;15.90;99.90;;;;;;489305;242;28904;-67
2022/08/25 03:56:21;;;;;;;2.30;2.20;;;15.90;99.90;;;;;;489313;242;28835;-69
2022/08/25 03:58:22;;;;;;;2.50;2.40;;;15.90;99.90;;;;;;488852;242;28837;-68
2022/08/25 04:00:24;;;;;;;2.50;2.40;;;15.90;99.90;;;;;;489413;242;28804;-68
2022/08/25 04:02:25;;;;;;;3.00;2.80;;;16.00;99.90;;;;;;489431;242;28840;-69
2022/08/25 04:04:26;;;;;;;3.00;2.80;;;16.00;99.90;;;;;;489378;242;28824;-68
2022/08/25 04:06:27;;;;;;;2.53;2.40;;;16.10;99.90;;;;;;489321;242;28857;-67
2022/08/25 04:08:29;;;;;;;2.53;2.43;;;16.10;99.90;;;;;;489347;242;29244;-68
2022/08/25 04:10:30;;;;;;;2.60;2.40;;;16.10;99.90;;;;;;489463;242;29301;-68
2022/08/25 04:12:31;;;;;;;3.00;2.80;;;16.10;99.90;;;;;;489414;242;29305;-72
2022/08/25 04:14:32;;;;;;;2.50;2.40;;;16.10;99.90;;;;;;489392;242;28793;-68
2022/08/25 04:18:37;;;;;;;2.87;2.67;;;16.00;99.90;;;;;;484283;237;29296;-71
2022/08/25 04:20:39;;;;;;;2.60;2.40;;;16.00;99.90;;;;;;485716;245;29336;-68
2022/08/25 04:22:40;;;;;;;2.80;2.60;;;16.10;99.90;;;;;;485714;245;29286;-69
2022/08/25 04:24:41;;;;;;;3.07;2.70;;;16.10;99.90;;;;;;485676;245;28774;-68
2022/08/25 04:26:42;;;;;;;2.67;2.57;;;16.10;99.90;;;;;;485652;245;28854;-68
2022/08/25 04:28:44;;;;;;;2.73;2.60;;;16.10;99.90;;;;;;485706;245;28924;-71
2022/08/25 04:30:45;;;;;;;2.30;2.20;;;16.10;99.90;;;;;;485670;245;28897;-68
2022/08/25 04:32:47;;;;;;;2.90;2.70;;;16.00;99.90;;;;;;485693;245;28840;-68
2022/08/25 04:34:48;;;;;;;2.53;2.43;;;16.00;99.90;;;;;;485543;245;28840;-68
2022/08/25 04:36:52;;;;;;;3.10;2.90;;;15.90;99.90;;;;;;479031;241;28926;-69
2022/08/25 04:38:53;;;;;;;3.30;3.10;;;15.80;99.90;;;;;;475383;250;28808;-68
2022/08/25 04:40:54;;;;;;;2.43;2.33;;;15.50;99.90;;;;;;475762;250;28782;-69
2022/08/25 04:42:55;;;;;;;2.90;2.70;;;15.30;99.90;;;;;;474045;251;28753;-68
2022/08/25 04:44:57;;;;;;;2.50;2.40;;;15.20;99.90;;;;;;475865;246;29104;-68
2022/08/25 04:46:58;;;;;;;2.43;2.33;;;15.20;99.90;;;;;;479030;247;30283;-68
2022/08/25 04:48:59;;;;;;;2.87;2.67;;;15.20;99.90;;;;;;479140;247;29309;-68
2022/08/25 04:51:01;;;;;;;3.13;2.93;;;15.20;99.90;;;;;;479117;247;29348;-69
2022/08/25 04:53:02;;;;;;;3.40;3.03;;;15.30;99.90;;;;;;479132;247;29296;-68
2022/08/25 04:55:03;;;;;;;3.07;2.87;;;15.30;99.90;;;;;;479121;247;28872;-68
2022/08/25 04:57:04;;;;;;;3.10;2.80;;;15.40;99.90;;;;;;478342;247;28940;-68
2022/08/25 04:59:06;;;;;;;2.60;2.50;;;15.60;99.90;;;;;;479054;247;28981;-69
2022/08/25 05:01:07;;;;;;;3.10;2.90;;;15.70;99.90;;;;;;479096;247;28907;-71
2022/08/25 05:03:08;;;;;;;3.10;2.87;;;15.80;99.90;;;;;;479139;247;28839;-68
2022/08/25 05:05:09;;;;;;;3.23;3.03;;;15.90;99.90;;;;;;479110;247;28871;-71
2022/08/25 05:07:10;;;;;;;2.83;2.63;;;16.00;99.90;;;;;;478879;247;29269;-68
2022/08/25 05:09:12;;;;;;;3.80;2.87;;;16.10;99.90;;;;;;479099;247;28855;-68
2022/08/25 05:11:13;;;;;;;3.13;2.93;;;16.10;99.90;;;;;;479011;247;28791;-71
2022/08/25 05:13:14;;;;;;;3.17;2.90;;;16.10;99.90;;;;;;478952;247;29311;-68
2022/08/25 05:17:35;;;;;;;3.10;2.90;;;16.00;99.90;;;;;;478872;247;28886;-68
2022/08/25 05:19:36;;;;;;;3.47;3.27;;;15.90;99.90;;;;;;479082;247;28756;-68
2022/08/25 05:21:37;;;;;;;3.40;3.20;;;15.70;99.90;;;;;;479108;247;29292;-67
2022/08/25 05:23:39;;;;;;;3.50;3.23;;;15.70;99.90;;;;;;479070;247;29290;-72
2022/08/25 05:25:41;;;;;;;3.20;3.00;;;15.70;99.90;;;;;;479073;247;29348;-68
2022/08/25 05:27:41;;;;;;;3.50;3.30;;;15.70;99.90;;;;;;479005;247;29450;-69
2022/08/25 05:29:42;;;;;;;3.73;3.50;;;15.70;99.90;;;;;;479045;247;28872;-68
2022/08/25 05:31:44;;;;;;;3.70;3.40;;;15.80;99.90;;;;;;477089;243;28777;-70
2022/08/25 05:33:47;;;;;;;3.03;2.83;;;16.00;99.90;;;;;;474143;247;28864;-71
2022/08/25 05:35:48;;;;;;;3.50;3.30;;;16.10;99.90;;;;;;475138;250;28788;-69
2022/08/25 05:37:49;;;;;;;4.00;3.70;;;16.10;99.90;;;;;;476521;243;28839;-70
2022/08/25 05:39:51;;;;;;;3.80;3.50;;;16.20;99.90;;;;;;479091;247;29461;-68
2022/08/25 05:41:52;;;;;;;3.80;3.50;;;16.20;99.90;;;;;;479134;247;28962;-68
2022/08/25 05:43:53;;;;;;;3.87;3.57;;;16.30;99.90;;;;;;478879;247;28789;-70
2022/08/25 05:45:55;;;;;;;3.73;3.47;;;16.30;99.90;;;;;;479003;248;28741;-68
2022/08/25 05:47:56;;;;;;;4.33;3.93;;;16.30;99.90;;;;;;479096;247;28958;-67
2022/08/25 05:49:57;;;;;;;3.33;3.13;;;16.40;99.90;;;;;;479151;247;29499;-69
2022/08/25 05:51:58;;;;;;;3.40;3.20;;;16.50;99.90;;;;;;479060;247;29306;-68
2022/08/25 05:54:02;;;;;;;3.83;3.47;;;16.40;99.90;;;;;;479149;247;29299;-70
2022/08/25 05:56:01;;;;;;;3.10;2.90;;;16.50;99.90;;;;;;478830;248;28983;-76
2022/08/25 05:58:03;;;;;;;3.10;2.90;;;16.40;99.90;;;;;;478709;241;28883;-69
2022/08/25 06:00:03;;;;;;;3.80;3.50;;;16.40;99.90;;;;;;479068;247;28845;-68
2022/08/25 06:04:25;;;;;;;3.33;3.13;;;16.50;99.90;;;;;;474375;251;29382;-69
2022/08/25 06:06:26;;;;;;;3.50;3.30;;;16.50;99.90;;;;;;482554;245;28764;-73
2022/08/25 06:08:31;;;;;;;3.40;3.10;;;16.50;99.90;;;;;;481312;239;28772;-68
2022/08/25 06:10:28;;;;;;;3.43;3.23;;;16.60;99.90;;;;;;483042;241;28923;-69
2022/08/25 06:12:31;;;;;;;3.90;3.53;;;16.80;99.90;;;;;;478852;241;29209;-69
2022/08/25 06:14:31;;;;;;;3.97;3.67;;;16.80;99.90;;;;;;483341;241;28706;-68
2022/08/25 06:16:32;;;;;;;3.57;3.17;;;16.90;99.90;;;;;;483416;244;28789;-69
2022/08/25 06:18:33;;;;;;;4.30;4.00;;;17.20;99.90;;;;;;483483;244;28818;-68
2022/08/25 06:20:35;;;;;;;5.00;4.50;;;17.80;99.90;;;;;;483226;245;28829;-69
2022/08/25 06:22:36;;;;;;;4.60;4.20;;;18.40;99.90;;;;;;483528;244;29205;-68
2022/08/25 06:24:37;;;;;;;5.43;4.40;;;18.40;99.90;;;;;;483510;244;28745;-70
2022/08/25 06:28:59;;;;;;;4.90;4.40;;;18.80;99.90;;;;;;460499;258;28995;-69
2022/08/25 06:31:00;;;;;;;6.27;5.00;;;19.10;99.90;;;;;;460538;258;30109;-72
2022/08/25 06:33:01;;;;;;;6.70;4.80;;;19.50;99.90;;;;;;460567;258;29524;-68
2022/08/25 06:35:03;;;;;;;7.20;5.30;;;19.70;99.90;;;;;;460540;258;29481;-69
2022/08/25 06:37:04;;;;;;;6.70;5.50;;;19.80;99.90;;;;;;466072;234;28901;-68
2022/08/25 06:39:05;;;;;;;6.70;6.00;;;19.80;99.90;;;;;;465039;256;28868;-69
2022/08/25 06:41:07;;;;;;;7.40;5.30;;;19.90;99.90;;;;;;464990;256;28867;-72
2022/08/25 06:43:08;;;;;;;6.40;5.63;;;20.00;99.90;;;;;;465060;253;28939;-69
2022/08/25 06:45:09;;;;;;;7.00;6.30;;;20.20;99.90;;;;;;465030;256;28965;-69
2022/08/25 06:47:10;;;;;;;6.17;5.57;;;20.30;99.90;;;;;;480811;240;28793;-68
2022/08/25 06:49:12;;;;;;;6.00;5.40;;;20.30;99.90;;;;;;488017;243;28889;-72
2022/08/25 06:51:13;;;;;;;12.37;5.40;;;20.20;99.90;;;;;;488617;241;29100;-73
2022/08/25 06:53:14;;;;;;;6.20;5.60;;;20.30;99.90;;;;;;488587;241;28842;-68
2022/08/25 06:55:15;;;;;;;5.50;5.00;;;20.30;99.90;;;;;;488555;241;29330;-69
2022/08/25 06:57:17;;;;;;;6.10;5.50;;;20.40;99.90;;;;;;487943;241;29251;-68
2022/08/25 06:59:18;;;;;;;6.67;5.80;;;20.50;99.90;;;;;;488804;241;29384;-72
2022/08/25 07:01:20;;;;;;;6.60;6.00;;;20.70;99.90;;;;;;492753;241;28770;-72
2022/08/25 07:03:20;;;;;;;5.87;4.70;;;20.60;99.90;;;;;;493333;241;28889;-69
2022/08/25 07:05:22;;;;;;;5.87;5.37;;;20.50;99.90;;;;;;493470;240;29307;-70
2022/08/25 07:07:23;;;;;;;5.90;5.30;;;20.60;99.90;;;;;;486548;236;29284;-69
2022/08/25 07:09:24;;;;;;;5.57;5.07;;;20.70;99.90;;;;;;469207;250;29303;-69
2022/08/25 07:11:25;;;;;;;5.67;5.03;;;20.60;99.90;;;;;;471396;251;28890;-72
2022/08/25 07:13:27;;;;;;;6.30;5.70;;;20.70;99.90;;;;;;472922;250;28878;-69
2022/08/25 07:15:28;;;;;;;5.60;5.10;;;20.80;99.90;;;;;;472995;250;28925;-69
2022/08/25 07:17:29;;;;;;;5.77;5.27;;;21.00;99.90;;;;;;479020;245;28873;-69
2022/08/25 07:19:30;;;;;;;8.73;5.50;;;20.90;99.90;;;;;;481856;246;28875;-69
2022/08/25 07:21:32;;;;;;;4.43;4.13;;;20.90;99.90;;;;;;481946;246;28824;-69
2022/08/25 07:23:33;;;;;;;6.10;5.00;;;20.80;99.90;;;;;;477175;246;28968;-68
2022/08/25 07:25:34;;;;;;;5.23;4.73;;;21.00;99.90;;;;;;468794;253;29479;-70
2022/08/25 07:27:36;;;;;;;4.53;4.23;;;20.90;99.90;;;;;;482186;238;28896;-70
2022/08/25 07:29:38;;;;;;;6.43;4.90;;;21.00;99.90;;;;;;496685;239;28679;-72
2022/08/25 07:31:38;;;;;;;5.73;5.23;;;21.10;99.90;;;;;;495690;239;29193;-70
2022/08/25 07:35:13;;;;;;;5.57;4.93;;;20.90;99.90;;;;;;497503;237;29667;-69
2022/08/25 07:35:40;;;;;;;5.10;4.70;;;20.90;99.90;;;;;;492219;238;29207;-69
2022/08/25 07:37:42;;;;;;;4.50;4.10;;;20.90;99.90;;;;;;489726;238;29229;-68
2022/08/25 07:39:43;;;;;;;6.40;5.30;;;21.00;99.90;;;;;;490360;242;29021;-69
2022/08/25 07:41:45;;;;;;;6.13;5.40;;;21.20;99.90;;;;;;490495;242;28824;-69
2022/08/25 07:43:46;;;;;;;5.43;5.03;;;21.40;99.90;;;;;;490561;242;28872;-69
2022/08/25 07:45:47;;;;;;;5.20;4.70;;;21.50;99.90;;;;;;490624;242;28817;-69
2022/08/25 07:47:48;;;;;;;8.40;4.70;;;21.50;99.90;;;;;;484667;242;29257;-69
2022/08/25 07:49:49;;;;;;;5.63;5.13;;;21.50;99.90;;;;;;486279;244;28810;-68
2022/08/25 07:51:50;;;;;;;6.17;4.90;;;21.50;99.90;;;;;;484662;245;29069;-69
2022/08/25 07:53:52;;;;;;;6.40;5.30;;;21.50;99.90;;;;;;484319;245;28835;-68
2022/08/25 07:55:54;;;;;;;5.60;5.10;;;21.50;99.90;;;;;;484754;245;28612;-68
2022/08/25 07:57:56;;;;;;;5.47;4.97;;;21.60;99.90;;;;;;489438;236;29265;-68
2022/08/25 07:59:57;;;;;;;5.27;4.77;;;21.60;99.90;;;;;;491707;241;29397;-68
2022/08/25 08:01:58;;;;;;;4.93;4.43;;;21.70;99.90;;;;;;491612;241;28809;-68
2022/08/25 08:03:59;;;;;;;4.87;4.47;;;21.70;99.90;;;;;;491667;242;28823;-69
2022/08/25 08:06:00;;;;;;;4.93;4.50;;;21.90;99.90;;;;;;491740;241;28916;-71
2022/08/25 08:08:02;;;;;;;5.67;4.97;;;22.10;99.90;;;;;;484458;240;28956;-68
2022/08/25 08:10:03;;;;;;;4.80;4.40;;;22.20;99.90;;;;;;482327;246;28841;-69
2022/08/25 08:12:04;;;;;;;5.80;5.30;;;22.10;99.90;;;;;;482383;246;28844;-68
2022/08/25 08:14:05;;;;;;;5.60;5.00;;;22.20;99.90;;;;;;482309;246;28775;-68
2022/08/25 08:16:07;;;;;;;5.10;4.60;;;22.10;99.90;;;;;;482282;246;28780;-75
2022/08/25 08:18:08;;;;;;;4.47;4.17;;;22.20;99.90;;;;;;477824;241;28991;-69
2022/08/25 08:20:09;;;;;;;4.30;4.00;;;22.10;99.90;;;;;;474427;250;29456;-69
2022/08/25 08:22:13;;;;;;;5.80;4.47;;;22.10;99.90;;;;;;474352;250;29379;-68
2022/08/25 08:24:12;;;;;;;4.47;4.07;;;22.20;99.90;;;;;;474335;250;29444;-68
2022/08/25 08:26:13;;;;;;;4.53;3.77;;;22.40;99.90;;;;;;474171;250;29011;-71
2022/08/25 08:28:14;;;;;;;4.03;3.70;;;22.40;99.90;;;;;;480371;241;28909;-69
2022/08/25 08:30:15;;;;;;;4.57;4.17;;;22.60;99.90;;;;;;477752;249;28877;-70
2022/08/25 08:32:17;;;;;;;6.77;4.53;;;22.80;99.90;;;;;;477919;249;28796;-68
2022/08/25 08:34:18;;;;;;;4.90;4.50;;;22.90;99.90;;;;;;477879;249;28820;-69
2022/08/25 08:36:20;;;;;;;4.77;4.37;;;23.00;99.90;;;;;;477799;249;28809;-71
2022/08/25 08:38:20;;;;;;;6.10;4.47;;;23.20;99.90;;;;;;479592;234;28797;-69
2022/08/25 08:40:22;;;;;;;4.50;4.10;;;23.10;99.90;;;;;;475260;248;28756;-70
2022/08/25 08:42:23;;;;;;;4.97;4.50;;;23.10;99.90;;;;;;478552;248;28813;-69
2022/08/25 08:44:24;;;;;;;4.73;4.33;;;23.10;99.90;;;;;;475138;250;29244;-70
2022/08/25 08:46:25;;;;;;;5.33;4.77;;;23.20;99.90;;;;;;478476;248;29436;-71
2022/08/25 08:48:27;;;;;;;6.67;5.00;;;23.20;99.90;;;;;;496633;238;29133;-69
2022/08/25 08:50:28;;;;;;;4.77;4.37;;;23.20;99.90;;;;;;492383;241;29401;-70
2022/08/25 08:52:30;;;;;;;4.47;4.07;;;23.20;99.90;;;;;;495554;240;28782;-68
2022/08/25 08:54:30;;;;;;;4.73;4.33;;;23.30;99.90;;;;;;495523;240;28842;-69
2022/08/25 08:58:46;;;;;;;5.57;5.07;;;23.50;99.90;;;;;;482221;246;28788;-69
2022/08/25 09:00:49;;;;;;;5.80;5.20;;;23.50;99.90;;;;;;485681;244;29386;-69
2022/08/25 09:02:49;;;;;;;4.97;4.57;;;23.60;99.90;;;;;;492188;241;29291;-68
2022/08/25 09:04:50;;;;;;;5.87;5.33;;;23.70;99.90;;;;;;492262;239;29354;-70
2022/08/25 09:06:51;;;;;;;4.50;4.10;;;23.80;99.90;;;;;;489734;239;29362;-69
2022/08/25 09:08:54;;;;;;;5.90;4.20;;;23.70;99.90;;;;;;477174;247;28891;-69
2022/08/25 09:10:54;;;;;;;5.30;4.87;;;23.60;99.90;;;;;;476796;247;28902;-69
2022/08/25 09:12:56;;;;;;;5.87;5.27;;;23.70;99.90;;;;;;477088;249;28767;-69
2022/08/25 09:14:56;;;;;;;4.50;4.10;;;23.80;99.90;;;;;;477112;247;28808;-72
2022/08/25 09:16:58;;;;;;;4.47;3.90;;;23.90;99.90;;;;;;476166;242;28898;-69
2022/08/25 09:18:59;;;;;;;5.70;4.20;;;23.90;99.90;;;;;;471019;252;28843;-69
2022/08/25 09:21:00;;;;;;;5.60;4.60;;;24.00;99.90;;;;;;471009;252;28991;-68
2022/08/25 09:23:01;;;;;;;4.83;4.20;;;24.00;99.90;;;;;;470978;252;28916;-69
2022/08/25 09:25:03;;;;;;;4.80;4.40;;;24.00;99.90;;;;;;470994;252;28983;-70
2022/08/25 09:27:04;;;;;;;4.47;4.10;;;24.10;99.90;;;;;;470903;252;29419;-69
2022/08/25 09:29:05;;;;;;;4.40;3.97;;;24.30;99.90;;;;;;468204;252;36979;-70
2022/08/25 09:31:06;;;;;;;4.90;3.97;;;24.30;99.90;;;;;;470963;252;28732;-68
2022/08/25 09:33:08;;;;;;;5.43;4.70;;;24.20;99.90;;;;;;470792;252;28876;-69
2022/08/25 09:35:09;;;;;;;5.37;4.67;;;24.20;99.90;;;;;;471002;252;28927;-71
2022/08/25 09:37:10;;;;;;;4.83;4.43;;;24.20;99.90;;;;;;470938;252;28994;-69
2022/08/25 09:39:11;;;;;;;4.50;4.10;;;24.20;99.90;;;;;;470992;252;28987;-69
2022/08/25 09:41:13;;;;;;;4.43;4.00;;;24.30;99.90;;;;;;471027;252;28846;-69
2022/08/25 09:43:14;;;;;;;4.60;4.10;;;24.30;99.90;;;;;;470974;252;28811;-68
2022/08/25 09:45:15;;;;;;;3.80;3.50;;;24.50;99.90;;;;;;471036;252;28912;-69
2022/08/25 09:47:16;;;;;;;4.23;3.93;;;24.50;99.90;;;;;;470935;252;28983;-69
2022/08/25 09:49:18;;;;;;;4.53;3.67;;;24.50;99.90;;;;;;471024;252;29002;-69
2022/08/25 09:51:19;;;;;;;4.23;3.80;;;24.40;99.90;;;;;;471001;252;28838;-68
2022/08/25 09:53:20;;;;;;;4.90;3.60;;;24.30;99.90;;;;;;470997;252;29389;-69
2022/08/25 09:55:21;;;;;;;4.30;3.90;;;24.40;99.90;;;;;;455789;251;29515;-71
2022/08/25 09:57:23;;;;;;;4.50;4.10;;;24.40;99.90;;;;;;454359;260;28905;-71
2022/08/25 09:59:24;;;;;;;4.40;4.00;;;24.60;99.90;;;;;;454434;260;28941;-70
2022/08/25 10:01:25;;;;;;;4.50;4.10;;;24.80;99.90;;;;;;454434;261;28936;-69
2022/08/25 10:03:26;;;;;;;5.10;4.10;;;24.90;99.90;;;;;;454426;261;28933;-69
2022/08/25 10:05:33;;;;;;;4.37;3.90;;;25.00;99.90;;;;;;454404;260;28948;-70
2022/08/25 10:07:29;;;;;;;5.10;4.07;;;24.80;99.90;;;;;;454193;261;29395;-69
2022/08/25 10:09:31;;;;;;;3.73;3.43;;;24.90;99.90;;;;;;454364;260;29420;-70
2022/08/25 10:11:32;;;;;;;3.47;3.17;;;24.70;99.90;;;;;;454375;260;29597;-73
2022/08/25 10:13:33;;;;;;;3.70;3.40;;;24.80;99.90;;;;;;454440;260;28915;-69
2022/08/25 10:15:34;;;;;;;3.70;3.40;;;24.80;99.90;;;;;;454413;255;29064;-69
2022/08/25 10:17:35;;;;;;;4.03;3.47;;;25.30;99.90;;;;;;454393;260;28907;-69
2022/08/25 10:19:36;;;;;;;4.53;4.00;;;25.20;99.90;;;;;;461478;257;28929;-70
2022/08/25 10:21:38;;;;;;;4.67;4.27;;;25.00;99.90;;;;;;463839;256;29000;-72
2022/08/25 10:23:39;;;;;;;4.57;4.00;;;24.60;99.90;;;;;;463843;253;28805;-69
2022/08/25 10:25:40;;;;;;;4.60;4.20;;;24.60;99.90;;;;;;463770;255;28925;-70
2022/08/25 10:27:41;;;;;;;4.20;3.90;;;24.80;99.90;;;;;;463779;253;28940;-69
2022/08/25 10:29:43;;;;;;;4.23;3.93;;;24.80;99.90;;;;;;463825;254;28832;-69
2022/08/25 10:31:44;;;;;;;3.87;3.57;;;24.60;99.90;;;;;;463772;253;29331;-73
2022/08/25 10:33:46;;;;;;;4.30;3.90;;;24.70;99.90;;;;;;463835;253;29426;-69
2022/08/25 10:35:46;;;;;;;5.33;4.10;;;24.90;99.90;;;;;;463772;253;29392;-70
2022/08/25 10:37:48;;;;;;;3.87;3.30;;;25.00;99.90;;;;;;463744;253;28961;-69
2022/08/25 10:39:49;;;;;;;4.03;3.63;;;24.80;99.90;;;;;;463842;253;28873;-70
2022/08/25 10:41:50;;;;;;;5.00;4.20;;;24.80;99.90;;;;;;463727;253;28998;-72
2022/08/25 10:43:51;;;;;;;4.00;3.70;;;24.60;99.90;;;;;;463784;253;28928;-69
2022/08/25 10:45:53;;;;;;;4.73;4.17;;;24.60;99.90;;;;;;463788;253;28952;-72